sensor_id;sensor_type;location;lat;lon;timestamp;pressure;altitude;pressure_sealevel;temperature;humidity
58690;BME280;44470;53.206;-6.106;2023-06-26T00:01:01;101512.19;;;21.04;61.91
58690;BME280;44470;53.206;-6.106;2023-06-26T00:03:27;101516.66;;;21.04;61.86
58690;BME280;44470;53.206;-6.106;2023-06-26T00:05:54;101521.13;;;21.05;62.01
58690;BME280;44470;53.206;-6.106;2023-06-26T00:08:19;101514.00;;;21.04;61.85
58690;BME280;44470;53.206;-6.106;2023-06-26T00:10:45;101517.53;;;21.04;62.13
58690;BME280;44470;53.206;-6.106;2023-06-26T00:13:11;101510.41;;;21.05;61.91
58690;BME280;44470;53.206;-6.106;2023-06-26T00:15:37;101521.06;;;21.07;61.79
58690;BME280;44470;53.206;-6.106;2023-06-26T00:18:03;101513.09;;;21.05;62.05
58690;BME280;44470;53.206;-6.106;2023-06-26T00:20:28;101519.31;;;21.05;62.23
58690;BME280;44470;53.206;-6.106;2023-06-26T00:22:54;101521.06;;;21.07;62.08
58690;BME280;44470;53.206;-6.106;2023-06-26T00:25:23;101523.75;;;21.07;61.94
58690;BME280;44470;53.206;-6.106;2023-06-26T00:27:49;101516.63;;;21.05;61.93
58690;BME280;44470;53.206;-6.106;2023-06-26T00:30:14;101521.06;;;21.07;61.97
58690;BME280;44470;53.206;-6.106;2023-06-26T00:32:40;101530.00;;;21.07;61.91
58690;BME280;44470;53.206;-6.106;2023-06-26T00:35:05;101535.38;;;21.07;62.19
58690;BME280;44470;53.206;-6.106;2023-06-26T00:37:30;101527.34;;;21.07;62.18
58690;BME280;44470;53.206;-6.106;2023-06-26T00:39:56;101526.44;;;21.07;62.05
58690;BME280;44470;53.206;-6.106;2023-06-26T00:42:22;101530.88;;;21.08;61.86
58690;BME280;44470;53.206;-6.106;2023-06-26T00:44:47;101525.53;;;21.08;62.17
58690;BME280;44470;53.206;-6.106;2023-06-26T00:47:14;101529.97;;;21.09;62.00
58690;BME280;44470;53.206;-6.106;2023-06-26T00:49:40;101522.84;;;21.08;62.33
58690;BME280;44470;53.206;-6.106;2023-06-26T00:52:06;101525.53;;;21.08;62.15
58690;BME280;44470;53.206;-6.106;2023-06-26T00:54:31;101528.19;;;21.08;62.35
58690;BME280;44470;53.206;-6.106;2023-06-26T00:56:57;101534.47;;;21.08;62.10
58690;BME280;44470;53.206;-6.106;2023-06-26T00:59:22;101534.41;;;21.10;62.21
58690;BME280;44470;53.206;-6.106;2023-06-26T01:01:48;101531.75;;;21.10;62.25
58690;BME280;44470;53.206;-6.106;2023-06-26T01:04:13;101535.31;;;21.09;62.35
58690;BME280;44470;53.206;-6.106;2023-06-26T01:06:46;101539.78;;;21.10;62.20
58690;BME280;44470;53.206;-6.106;2023-06-26T01:09:18;101538.88;;;21.11;62.30
58690;BME280;44470;53.206;-6.106;2023-06-26T01:11:44;101543.34;;;21.09;62.36
58690;BME280;44470;53.206;-6.106;2023-06-26T01:14:10;101540.69;;;21.09;62.14
58690;BME280;44470;53.206;-6.106;2023-06-26T01:16:37;101551.38;;;21.09;62.34
58690;BME280;44470;53.206;-6.106;2023-06-26T01:19:06;101540.69;;;21.10;62.59
58690;BME280;44470;53.206;-6.106;2023-06-26T01:21:35;101553.16;;;21.10;62.55
58690;BME280;44470;53.206;-6.106;2023-06-26T01:24:07;101546.94;;;21.09;62.44
58690;BME280;44470;53.206;-6.106;2023-06-26T01:26:35;101553.16;;;21.10;62.57
58690;BME280;44470;53.206;-6.106;2023-06-26T01:29:02;101558.50;;;21.10;62.25
58690;BME280;44470;53.206;-6.106;2023-06-26T01:31:28;101556.75;;;21.09;62.59
58690;BME280;44470;53.206;-6.106;2023-06-26T01:33:56;101561.19;;;21.10;62.40
58690;BME280;44470;53.206;-6.106;2023-06-26T01:36:22;101556.75;;;21.09;62.54
58690;BME280;44470;53.206;-6.106;2023-06-26T01:38:48;101563.88;;;21.10;62.55
58690;BME280;44470;53.206;-6.106;2023-06-26T01:41:13;101567.44;;;21.09;62.35
58690;BME280;44470;53.206;-6.106;2023-06-26T01:46:18;101565.66;;;21.09;62.57
58690;BME280;44470;53.206;-6.106;2023-06-26T01:48:49;101564.75;;;21.10;62.30
58690;BME280;44470;53.206;-6.106;2023-06-26T01:51:15;101563.88;;;21.10;62.56
58690;BME280;44470;53.206;-6.106;2023-06-26T01:53:45;101567.44;;;21.09;62.54
58690;BME280;44470;53.206;-6.106;2023-06-26T01:56:14;101563.88;;;21.10;62.67
58690;BME280;44470;53.206;-6.106;2023-06-26T01:58:43;101571.88;;;21.10;62.63
58690;BME280;44470;53.206;-6.106;2023-06-26T02:01:09;101566.53;;;21.10;62.58
58690;BME280;44470;53.206;-6.106;2023-06-26T02:03:34;101567.44;;;21.10;62.26
58690;BME280;44470;53.206;-6.106;2023-06-26T02:06:00;101571.00;;;21.11;62.27
58690;BME280;44470;53.206;-6.106;2023-06-26T02:08:26;101571.00;;;21.11;62.46
58690;BME280;44470;53.206;-6.106;2023-06-26T02:10:55;101564.75;;;21.10;62.20
58690;BME280;44470;53.206;-6.106;2023-06-26T02:13:20;101570.13;;;21.10;62.57
58690;BME280;44470;53.206;-6.106;2023-06-26T02:15:46;101568.31;;;21.11;62.48
58690;BME280;44470;53.206;-6.106;2023-06-26T02:18:11;101555.84;;;21.10;62.57
58690;BME280;44470;53.206;-6.106;2023-06-26T02:20:37;101554.06;;;21.10;62.27
58690;BME280;44470;53.206;-6.106;2023-06-26T02:23:02;101537.09;;;21.10;62.36
58690;BME280;44470;53.206;-6.106;2023-06-26T02:25:27;101538.88;;;21.11;62.32
58690;BME280;44470;53.206;-6.106;2023-06-26T02:27:53;101539.78;;;21.10;62.55
58690;BME280;44470;53.206;-6.106;2023-06-26T02:30:18;101551.34;;;21.12;62.63
58690;BME280;44470;53.206;-6.106;2023-06-26T02:32:44;101539.78;;;21.11;62.32
58690;BME280;44470;53.206;-6.106;2023-06-26T02:35:10;101541.53;;;21.11;62.42
58690;BME280;44470;53.206;-6.106;2023-06-26T02:37:41;101548.72;;;21.10;62.55
58690;BME280;44470;53.206;-6.106;2023-06-26T02:40:06;101559.38;;;21.12;62.64
58690;BME280;44470;53.206;-6.106;2023-06-26T02:42:34;101560.28;;;21.12;62.62
58690;BME280;44470;53.206;-6.106;2023-06-26T02:45:00;101561.19;;;21.10;62.56
58690;BME280;44470;53.206;-6.106;2023-06-26T02:47:25;101566.53;;;21.11;62.55
58690;BME280;44470;53.206;-6.106;2023-06-26T02:49:51;101564.72;;;21.12;62.45
58690;BME280;44470;53.206;-6.106;2023-06-26T02:52:16;101571.88;;;21.11;62.23
58690;BME280;44470;53.206;-6.106;2023-06-26T02:54:42;101567.41;;;21.12;62.24
58690;BME280;44470;53.206;-6.106;2023-06-26T02:57:07;101572.75;;;21.12;62.59
58690;BME280;44470;53.206;-6.106;2023-06-26T02:59:33;101575.44;;;21.12;62.44
58690;BME280;44470;53.206;-6.106;2023-06-26T03:01:59;101573.66;;;21.12;62.29
58690;BME280;44470;53.206;-6.106;2023-06-26T03:04:30;101575.44;;;21.12;62.69
58690;BME280;44470;53.206;-6.106;2023-06-26T03:06:55;101572.75;;;21.12;62.67
58690;BME280;44470;53.206;-6.106;2023-06-26T03:09:21;101572.75;;;21.12;62.40
58690;BME280;44470;53.206;-6.106;2023-06-26T03:11:47;101576.34;;;21.11;62.60
58690;BME280;44470;53.206;-6.106;2023-06-26T03:14:13;101579.00;;;21.12;62.37
58690;BME280;44470;53.206;-6.106;2023-06-26T03:16:39;101579.91;;;21.11;62.30
58690;BME280;44470;53.206;-6.106;2023-06-26T03:19:05;101585.28;;;21.11;62.19
58690;BME280;44470;53.206;-6.106;2023-06-26T03:21:41;101582.56;;;21.13;62.55
58690;BME280;44470;53.206;-6.106;2023-06-26T03:24:06;101579.88;;;21.13;62.29
58690;BME280;44470;53.206;-6.106;2023-06-26T03:26:31;101578.13;;;21.12;62.27
58690;BME280;44470;53.206;-6.106;2023-06-26T03:28:58;101582.56;;;21.13;62.25
58690;BME280;44470;53.206;-6.106;2023-06-26T03:31:24;101587.00;;;21.14;62.39
58690;BME280;44470;53.206;-6.106;2023-06-26T03:33:49;101581.69;;;21.11;62.29
58690;BME280;44470;53.206;-6.106;2023-06-26T03:36:15;101589.72;;;21.12;62.16
58690;BME280;44470;53.206;-6.106;2023-06-26T03:38:40;101599.53;;;21.12;62.29
58690;BME280;44470;53.206;-6.106;2023-06-26T03:41:06;101596.84;;;21.12;62.38
58690;BME280;44470;53.206;-6.106;2023-06-26T03:43:31;101601.28;;;21.13;62.17
58690;BME280;44470;53.206;-6.106;2023-06-26T03:46:10;101595.97;;;21.10;62.33
58690;BME280;44470;53.206;-6.106;2023-06-26T03:48:35;101588.81;;;21.12;62.47
58690;BME280;44470;53.206;-6.106;2023-06-26T03:51:02;101578.13;;;21.12;62.22
58690;BME280;44470;53.206;-6.106;2023-06-26T03:53:28;101578.13;;;21.12;62.40
58690;BME280;44470;53.206;-6.106;2023-06-26T03:55:54;101575.44;;;21.12;62.24
58690;BME280;44470;53.206;-6.106;2023-06-26T03:58:21;101588.81;;;21.12;62.44
58690;BME280;44470;53.206;-6.106;2023-06-26T04:00:47;101581.69;;;21.12;62.36
58690;BME280;44470;53.206;-6.106;2023-06-26T04:03:12;101583.47;;;21.12;62.12
58690;BME280;44470;53.206;-6.106;2023-06-26T04:05:41;101581.69;;;21.11;62.54
58690;BME280;44470;53.206;-6.106;2023-06-26T04:08:06;101590.59;;;21.13;62.21
58690;BME280;44470;53.206;-6.106;2023-06-26T04:10:31;101590.59;;;21.13;62.23
58690;BME280;44470;53.206;-6.106;2023-06-26T04:13:06;101583.47;;;21.12;62.45
58690;BME280;44470;53.206;-6.106;2023-06-26T04:15:31;101593.25;;;21.13;62.08
58690;BME280;44470;53.206;-6.106;2023-06-26T04:17:57;101597.75;;;21.12;62.13
58690;BME280;44470;53.206;-6.106;2023-06-26T04:20:22;101595.94;;;21.13;62.39
58690;BME280;44470;53.206;-6.106;2023-06-26T04:22:48;101594.16;;;21.13;62.18
58690;BME280;44470;53.206;-6.106;2023-06-26T04:25:13;101587.94;;;21.11;62.15
58690;BME280;44470;53.206;-6.106;2023-06-26T04:27:38;101586.16;;;21.12;62.09
58690;BME280;44470;53.206;-6.106;2023-06-26T04:30:04;101587.03;;;21.12;62.34
58690;BME280;44470;53.206;-6.106;2023-06-26T04:32:30;101587.03;;;21.12;62.33
58690;BME280;44470;53.206;-6.106;2023-06-26T04:34:55;101592.41;;;21.12;62.32
58690;BME280;44470;53.206;-6.106;2023-06-26T04:37:21;101588.81;;;21.12;62.02
58690;BME280;44470;53.206;-6.106;2023-06-26T04:39:47;101595.94;;;21.13;62.15
58690;BME280;44470;53.206;-6.106;2023-06-26T04:42:12;101598.63;;;21.13;62.28
58690;BME280;44470;53.206;-6.106;2023-06-26T04:44:37;101602.19;;;21.13;62.27
58690;BME280;44470;53.206;-6.106;2023-06-26T04:47:03;101601.28;;;21.13;62.37
58690;BME280;44470;53.206;-6.106;2023-06-26T04:49:29;101604.88;;;21.12;62.22
58690;BME280;44470;53.206;-6.106;2023-06-26T04:51:55;101605.78;;;21.12;61.95
58690;BME280;44470;53.206;-6.106;2023-06-26T04:54:21;101612.00;;;21.13;62.17
58690;BME280;44470;53.206;-6.106;2023-06-26T04:56:46;101619.13;;;21.14;62.27
58690;BME280;44470;53.206;-6.106;2023-06-26T04:59:12;101622.72;;;21.13;62.37
58690;BME280;44470;53.206;-6.106;2023-06-26T05:01:38;101619.13;;;21.14;62.13
58690;BME280;44470;53.206;-6.106;2023-06-26T05:04:05;101613.78;;;21.14;62.20
58690;BME280;44470;53.206;-6.106;2023-06-26T05:06:30;101622.72;;;21.13;62.40
58690;BME280;44470;53.206;-6.106;2023-06-26T05:08:55;101617.34;;;21.13;62.39
58690;BME280;44470;53.206;-6.106;2023-06-26T05:11:21;101613.78;;;21.14;62.20
58690;BME280;44470;53.206;-6.106;2023-06-26T05:13:46;101621.81;;;21.14;61.98
58690;BME280;44470;53.206;-6.106;2023-06-26T05:16:12;101617.34;;;21.13;62.03
58690;BME280;44470;53.206;-6.106;2023-06-26T05:18:37;101621.81;;;21.14;61.95
58690;BME280;44470;53.206;-6.106;2023-06-26T05:21:02;101615.56;;;21.15;62.34
58690;BME280;44470;53.206;-6.106;2023-06-26T05:23:31;101621.81;;;21.14;62.00
58690;BME280;44470;53.206;-6.106;2023-06-26T05:25:57;101613.78;;;21.14;62.14
58690;BME280;44470;53.206;-6.106;2023-06-26T05:28:25;101623.63;;;21.13;62.00
58690;BME280;44470;53.206;-6.106;2023-06-26T05:30:52;101629.84;;;21.14;61.99
58690;BME280;44470;53.206;-6.106;2023-06-26T05:33:18;101637.00;;;21.13;62.38
58690;BME280;44470;53.206;-6.106;2023-06-26T05:35:44;101645.91;;;21.14;62.16
58690;BME280;44470;53.206;-6.106;2023-06-26T05:38:10;101645.91;;;21.14;62.43
58690;BME280;44470;53.206;-6.106;2023-06-26T05:40:36;101643.22;;;21.14;62.21
58690;BME280;44470;53.206;-6.106;2023-06-26T05:43:01;101637.88;;;21.14;62.51
58690;BME280;44470;53.206;-6.106;2023-06-26T05:45:27;101637.88;;;21.14;62.14
58690;BME280;44470;53.206;-6.106;2023-06-26T05:47:52;101644.13;;;21.13;62.32
58690;BME280;44470;53.206;-6.106;2023-06-26T05:50:18;101644.13;;;21.14;62.38
58690;BME280;44470;53.206;-6.106;2023-06-26T05:52:44;101636.97;;;21.15;62.21
58690;BME280;44470;53.206;-6.106;2023-06-26T05:55:10;101646.81;;;21.14;62.00
58690;BME280;44470;53.206;-6.106;2023-06-26T05:57:36;101645.03;;;21.13;62.09
58690;BME280;44470;53.206;-6.106;2023-06-26T06:00:03;101648.56;;;21.14;62.31
58690;BME280;44470;53.206;-6.106;2023-06-26T06:02:39;101653.06;;;21.13;62.44
58690;BME280;44470;53.206;-6.106;2023-06-26T06:05:05;101651.25;;;21.14;62.49
58690;BME280;44470;53.206;-6.106;2023-06-26T06:07:31;101650.34;;;21.15;62.29
58690;BME280;44470;53.206;-6.106;2023-06-26T06:09:57;101668.22;;;21.14;62.01
58690;BME280;44470;53.206;-6.106;2023-06-26T06:12:23;101667.31;;;21.14;62.13
58690;BME280;44470;53.206;-6.106;2023-06-26T06:14:48;101666.44;;;21.13;62.18
58690;BME280;44470;53.206;-6.106;2023-06-26T06:17:13;101661.97;;;21.14;62.09
58690;BME280;44470;53.206;-6.106;2023-06-26T06:19:39;101674.44;;;21.15;62.28
58690;BME280;44470;53.206;-6.106;2023-06-26T06:22:04;101665.53;;;21.14;62.24
58690;BME280;44470;53.206;-6.106;2023-06-26T06:24:30;101667.31;;;21.14;61.98
58690;BME280;44470;53.206;-6.106;2023-06-26T06:26:55;101678.03;;;21.14;62.29
58690;BME280;44470;53.206;-6.106;2023-06-26T06:29:27;101669.09;;;21.15;62.36
58690;BME280;44470;53.206;-6.106;2023-06-26T06:31:52;101656.59;;;21.14;62.13
58690;BME280;44470;53.206;-6.106;2023-06-26T06:34:17;101661.06;;;21.15;61.96
58690;BME280;44470;53.206;-6.106;2023-06-26T06:36:43;101654.94;;;21.05;61.92
58690;BME280;44470;53.206;-6.106;2023-06-26T06:39:08;101678.94;;;21.14;62.30
58690;BME280;44470;53.206;-6.106;2023-06-26T06:41:34;101675.34;;;21.14;62.38
58690;BME280;44470;53.206;-6.106;2023-06-26T06:44:04;101684.28;;;21.14;62.25
58690;BME280;44470;53.206;-6.106;2023-06-26T06:46:29;101689.63;;;21.14;62.06
58690;BME280;44470;53.206;-6.106;2023-06-26T06:48:55;101686.06;;;21.15;62.35
58690;BME280;44470;53.206;-6.106;2023-06-26T06:51:21;101687.81;;;21.16;62.06
58690;BME280;44470;53.206;-6.106;2023-06-26T06:53:50;101679.78;;;21.15;62.12
58690;BME280;44470;53.206;-6.106;2023-06-26T06:56:15;101685.16;;;21.15;62.17
58690;BME280;44470;53.206;-6.106;2023-06-26T06:58:40;101691.41;;;21.15;61.99
58690;BME280;44470;53.206;-6.106;2023-06-26T07:01:09;101694.94;;;21.16;61.81
58690;BME280;44470;53.206;-6.106;2023-06-26T07:03:35;101695.84;;;21.15;61.85
58690;BME280;44470;53.206;-6.106;2023-06-26T07:06:01;101701.22;;;21.15;61.40
58690;BME280;44470;53.206;-6.106;2023-06-26T07:08:26;101708.38;;;21.13;59.67
58690;BME280;44470;53.206;-6.106;2023-06-26T07:10:52;101713.78;;;21.07;59.70
58690;BME280;44470;53.206;-6.106;2023-06-26T07:13:17;101722.72;;;21.07;60.20
58690;BME280;44470;53.206;-6.106;2023-06-26T07:15:42;101711.97;;;21.09;60.39
58690;BME280;44470;53.206;-6.106;2023-06-26T07:18:09;101715.53;;;21.11;60.48
58690;BME280;44470;53.206;-6.106;2023-06-26T07:20:34;101722.66;;;21.12;60.77
58690;BME280;44470;53.206;-6.106;2023-06-26T07:22:59;101719.06;;;21.13;61.34
58690;BME280;44470;53.206;-6.106;2023-06-26T07:25:25;101735.13;;;21.13;61.57
58690;BME280;44470;53.206;-6.106;2023-06-26T07:27:50;101721.75;;;21.13;61.55
58690;BME280;44470;53.206;-6.106;2023-06-26T07:30:15;101724.44;;;21.13;60.75
58690;BME280;44470;53.206;-6.106;2023-06-26T07:32:41;101735.19;;;21.07;57.79
58690;BME280;44470;53.206;-6.106;2023-06-26T07:35:07;101750.47;;;20.97;55.87
58690;BME280;44470;53.206;-6.106;2023-06-26T07:37:33;101734.44;;;20.90;55.61
58690;BME280;44470;53.206;-6.106;2023-06-26T07:39:58;101741.63;;;20.85;54.34
58690;BME280;44470;53.206;-6.106;2023-06-26T07:42:23;101736.31;;;20.81;54.86
58690;BME280;44470;53.206;-6.106;2023-06-26T07:44:49;101752.34;;;20.76;54.97
58690;BME280;44470;53.206;-6.106;2023-06-26T07:47:14;101748.81;;;20.71;53.24
58690;BME280;44470;53.206;-6.106;2023-06-26T07:49:40;101750.66;;;20.66;53.36
58690;BME280;44470;53.206;-6.106;2023-06-26T07:52:06;101759.63;;;20.58;53.62
58690;BME280;44470;53.206;-6.106;2023-06-26T07:54:31;101749.81;;;20.57;52.70
58690;BME280;44470;53.206;-6.106;2023-06-26T07:56:57;101752.47;;;20.60;54.63
58690;BME280;44470;53.206;-6.106;2023-06-26T07:59:24;101760.44;;;20.65;55.42
58690;BME280;44470;53.206;-6.106;2023-06-26T08:01:50;101759.53;;;20.71;55.75
58690;BME280;44470;53.206;-6.106;2023-06-26T08:04:15;101755.06;;;20.74;56.23
58690;BME280;44470;53.206;-6.106;2023-06-26T08:06:41;101763.97;;;20.80;56.61
58690;BME280;44470;53.206;-6.106;2023-06-26T08:09:06;101763.94;;;20.83;56.75
58690;BME280;44470;53.206;-6.106;2023-06-26T08:11:33;101755.91;;;20.86;57.47
58690;BME280;44470;53.206;-6.106;2023-06-26T08:13:58;101756.78;;;20.88;57.96
58690;BME280;44470;53.206;-6.106;2023-06-26T08:16:24;101759.41;;;20.89;58.32
58690;BME280;44470;53.206;-6.106;2023-06-26T08:18:49;101763.88;;;20.92;58.60
58690;BME280;44470;53.206;-6.106;2023-06-26T08:21:14;101765.66;;;20.93;58.57
58690;BME280;44470;53.206;-6.106;2023-06-26T08:23:40;101770.09;;;20.96;58.64
58690;BME280;44470;53.206;-6.106;2023-06-26T08:26:05;101762.97;;;20.95;58.99
58690;BME280;44470;53.206;-6.106;2023-06-26T08:28:30;101760.28;;;20.96;58.92
58690;BME280;44470;53.206;-6.106;2023-06-26T08:30:56;101765.63;;;20.98;58.79
58690;BME280;44470;53.206;-6.106;2023-06-26T08:33:21;101767.41;;;20.97;59.30
58690;BME280;44470;53.206;-6.106;2023-06-26T08:35:46;101776.31;;;20.99;59.48
58690;BME280;44470;53.206;-6.106;2023-06-26T08:38:12;101771.84;;;20.98;59.57
58690;BME280;44470;53.206;-6.106;2023-06-26T08:40:37;101779.88;;;21.00;59.07
58690;BME280;44470;53.206;-6.106;2023-06-26T08:43:03;101780.75;;;21.00;59.38
58690;BME280;44470;53.206;-6.106;2023-06-26T08:45:30;101779.88;;;21.00;59.59
58690;BME280;44470;53.206;-6.106;2023-06-26T08:47:56;101794.13;;;21.00;59.86
58690;BME280;44470;53.206;-6.106;2023-06-26T08:50:24;101792.38;;;21.01;59.61
58690;BME280;44470;53.206;-6.106;2023-06-26T08:55:18;101780.75;;;21.02;59.90
58690;BME280;44470;53.206;-6.106;2023-06-26T08:57:47;101779.84;;;21.01;60.02
58690;BME280;44470;53.206;-6.106;2023-06-26T09:00:12;101777.19;;;21.03;60.04
58690;BME280;44470;53.206;-6.106;2023-06-26T09:02:40;101776.28;;;21.02;60.27
58690;BME280;44470;53.206;-6.106;2023-06-26T09:05:06;101779.81;;;21.04;59.90
58690;BME280;44470;53.206;-6.106;2023-06-26T09:07:31;101788.75;;;21.05;60.23
58690;BME280;44470;53.206;-6.106;2023-06-26T09:09:57;101786.94;;;21.05;60.14
58690;BME280;44470;53.206;-6.106;2023-06-26T09:12:22;101788.72;;;21.07;60.22
58690;BME280;44470;53.206;-6.106;2023-06-26T09:14:47;101799.47;;;21.05;60.03
58690;BME280;44470;53.206;-6.106;2023-06-26T09:17:13;101794.09;;;21.07;60.37
58690;BME280;44470;53.206;-6.106;2023-06-26T09:19:39;101805.69;;;21.05;60.33
58690;BME280;44470;53.206;-6.106;2023-06-26T09:22:10;101804.78;;;21.07;60.41
58690;BME280;44470;53.206;-6.106;2023-06-26T09:24:36;101804.78;;;21.07;60.21
58690;BME280;44470;53.206;-6.106;2023-06-26T09:27:02;101800.34;;;21.07;60.40
58690;BME280;44470;53.206;-6.106;2023-06-26T09:29:27;101789.63;;;21.07;60.38
58690;BME280;44470;53.206;-6.106;2023-06-26T09:31:55;101789.63;;;21.07;60.51
58690;BME280;44470;53.206;-6.106;2023-06-26T09:34:21;101785.16;;;21.08;60.49
58690;BME280;44470;53.206;-6.106;2023-06-26T09:36:46;101792.28;;;21.09;60.37
58690;BME280;44470;53.206;-6.106;2023-06-26T09:39:13;101798.53;;;21.08;60.49
58690;BME280;44470;53.206;-6.106;2023-06-26T09:41:40;101801.22;;;21.08;60.38
58690;BME280;44470;53.206;-6.106;2023-06-26T09:44:06;101815.50;;;21.08;60.17
58690;BME280;44470;53.206;-6.106;2023-06-26T09:46:33;101809.25;;;21.08;60.27
58690;BME280;44470;53.206;-6.106;2023-06-26T09:48:59;101816.38;;;21.09;60.28
58690;BME280;44470;53.206;-6.106;2023-06-26T09:51:26;101813.69;;;21.09;60.26
58690;BME280;44470;53.206;-6.106;2023-06-26T09:53:51;101813.69;;;21.10;60.28
58690;BME280;44470;53.206;-6.106;2023-06-26T09:56:17;101813.69;;;21.09;60.35
58690;BME280;44470;53.206;-6.106;2023-06-26T09:58:43;101812.78;;;21.10;60.26
58690;BME280;44470;53.206;-6.106;2023-06-26T10:01:09;101807.44;;;21.10;60.36
58690;BME280;44470;53.206;-6.106;2023-06-26T10:03:35;101815.47;;;21.10;60.23
58690;BME280;44470;53.206;-6.106;2023-06-26T10:06:00;101816.38;;;21.09;60.09
58690;BME280;44470;53.206;-6.106;2023-06-26T10:08:27;101819.94;;;21.09;60.28
58690;BME280;44470;53.206;-6.106;2023-06-26T10:10:53;101820.81;;;21.10;60.30
58690;BME280;44470;53.206;-6.106;2023-06-26T10:13:21;101804.75;;;21.10;60.28
58690;BME280;44470;53.206;-6.106;2023-06-26T10:15:50;101825.28;;;21.11;60.37
58690;BME280;44470;53.206;-6.106;2023-06-26T10:18:16;101821.72;;;21.10;60.37
58690;BME280;44470;53.206;-6.106;2023-06-26T10:20:42;101827.94;;;21.11;60.43
58690;BME280;44470;53.206;-6.106;2023-06-26T10:23:10;101821.72;;;21.10;60.33
58690;BME280;44470;53.206;-6.106;2023-06-26T10:25:37;101833.31;;;21.11;60.18
58690;BME280;44470;53.206;-6.106;2023-06-26T10:28:04;101831.53;;;21.10;60.44
58690;BME280;44470;53.206;-6.106;2023-06-26T10:30:33;101827.09;;;21.10;60.08
58690;BME280;44470;53.206;-6.106;2023-06-26T10:33:00;101835.13;;;21.10;59.97
58690;BME280;44470;53.206;-6.106;2023-06-26T10:35:25;101845.78;;;21.12;60.50
58690;BME280;44470;53.206;-6.106;2023-06-26T10:37:52;101836.88;;;21.11;60.50
58690;BME280;44470;53.206;-6.106;2023-06-26T10:40:25;101843.13;;;21.12;60.27
58690;BME280;44470;53.206;-6.106;2023-06-26T10:42:50;101851.16;;;21.12;60.17
58690;BME280;44470;53.206;-6.106;2023-06-26T10:45:16;101848.47;;;21.12;60.49
58690;BME280;44470;53.206;-6.106;2023-06-26T10:47:44;101841.34;;;21.11;60.41
58690;BME280;44470;53.206;-6.106;2023-06-26T10:50:24;101851.16;;;21.12;60.28
58690;BME280;44470;53.206;-6.106;2023-06-26T10:53:08;101846.69;;;21.12;60.55
58690;BME280;44470;53.206;-6.106;2023-06-26T10:55:35;101856.50;;;21.12;60.38
58690;BME280;44470;53.206;-6.106;2023-06-26T10:58:01;101856.50;;;21.12;60.44
58690;BME280;44470;53.206;-6.106;2023-06-26T11:00:27;101858.31;;;21.11;60.67
58690;BME280;44470;53.206;-6.106;2023-06-26T11:02:52;101860.06;;;21.12;60.21
58690;BME280;44470;53.206;-6.106;2023-06-26T11:05:28;101867.22;;;21.12;60.53
58690;BME280;44470;53.206;-6.106;2023-06-26T11:08:07;101868.09;;;21.12;60.60
58690;BME280;44470;53.206;-6.106;2023-06-26T11:10:52;101874.34;;;21.13;60.17
58690;BME280;44470;53.206;-6.106;2023-06-26T11:13:18;101867.22;;;21.09;57.47
58690;BME280;44470;53.206;-6.106;2023-06-26T11:15:44;101860.13;;;21.04;57.85
58690;BME280;44470;53.206;-6.106;2023-06-26T11:18:10;101867.31;;;21.01;54.87
58690;BME280;44470;53.206;-6.106;2023-06-26T11:20:35;101869.09;;;20.97;54.64
58690;BME280;44470;53.206;-6.106;2023-06-26T11:23:01;101878.03;;;20.96;55.61
58690;BME280;44470;53.206;-6.106;2023-06-26T11:25:28;101888.72;;;20.96;56.07
58690;BME280;44470;53.206;-6.106;2023-06-26T11:27:53;101892.28;;;20.98;56.67
58690;BME280;44470;53.206;-6.106;2023-06-26T11:30:23;101890.47;;;21.00;57.04
58690;BME280;44470;53.206;-6.106;2023-06-26T11:32:48;101889.59;;;21.01;57.14
58690;BME280;44470;53.206;-6.106;2023-06-26T11:35:21;101888.69;;;21.02;57.44
58690;BME280;44470;53.206;-6.106;2023-06-26T11:37:48;101892.25;;;21.04;58.11
58690;BME280;44470;53.206;-6.106;2023-06-26T11:40:19;101903.84;;;21.05;58.30
58690;BME280;44470;53.206;-6.106;2023-06-26T11:42:46;101913.63;;;21.08;58.52
58690;BME280;44470;53.206;-6.106;2023-06-26T11:45:11;101916.31;;;21.08;58.40
58690;BME280;44470;53.206;-6.106;2023-06-26T11:47:38;101910.06;;;21.09;58.77
58690;BME280;44470;53.206;-6.106;2023-06-26T11:50:04;101908.28;;;21.08;58.81
58690;BME280;44470;53.206;-6.106;2023-06-26T11:52:29;101908.25;;;21.11;59.04
58690;BME280;44470;53.206;-6.106;2023-06-26T11:54:57;101908.25;;;21.11;59.08
58690;BME280;44470;53.206;-6.106;2023-06-26T11:57:23;101897.56;;;21.09;58.83
58690;BME280;44470;53.206;-6.106;2023-06-26T11:59:49;101893.09;;;21.11;59.34
58690;BME280;44470;53.206;-6.106;2023-06-26T12:02:15;101896.69;;;21.10;59.11
58690;BME280;44470;53.206;-6.106;2023-06-26T12:04:41;101900.25;;;21.09;59.18
58690;BME280;44470;53.206;-6.106;2023-06-26T12:07:08;101908.25;;;21.11;59.21
58690;BME280;44470;53.206;-6.106;2023-06-26T12:09:42;101915.38;;;21.12;59.51
58690;BME280;44470;53.206;-6.106;2023-06-26T12:12:09;101913.63;;;21.11;59.49
58690;BME280;44470;53.206;-6.106;2023-06-26T12:14:35;101910.94;;;21.11;59.66
58690;BME280;44470;53.206;-6.106;2023-06-26T12:17:03;101912.75;;;21.10;59.70
58690;BME280;44470;53.206;-6.106;2023-06-26T12:19:29;101909.16;;;21.11;59.85
58690;BME280;44470;53.206;-6.106;2023-06-26T12:21:54;101912.72;;;21.12;59.96
58690;BME280;44470;53.206;-6.106;2023-06-26T12:24:22;101910.03;;;21.12;60.04
58690;BME280;44470;53.206;-6.106;2023-06-26T12:26:53;101904.69;;;21.12;59.96
58690;BME280;44470;53.206;-6.106;2023-06-26T12:29:20;101904.69;;;21.12;60.25
58690;BME280;44470;53.206;-6.106;2023-06-26T12:31:48;101904.69;;;21.12;59.81
58690;BME280;44470;53.206;-6.106;2023-06-26T12:34:15;101908.25;;;21.11;60.26
58690;BME280;44470;53.206;-6.106;2023-06-26T12:36:50;101910.03;;;21.12;59.97
58690;BME280;44470;53.206;-6.106;2023-06-26T12:39:19;101910.03;;;21.12;60.05
58690;BME280;44470;53.206;-6.106;2023-06-26T12:41:52;101911.81;;;21.13;59.95